sensor_id;sensor_type;location;lat;lon;timestamp;P1;durP1;ratioP1;P2;durP2;ratioP2
49396;SDS011;35615;41.410;2.194;2023-02-28T00:02:12;5.28;;;3.28;;
49396;SDS011;35615;41.410;2.194;2023-02-28T00:04:57;5.45;;;3.17;;
49396;SDS011;35615;41.410;2.194;2023-02-28T00:07:47;7.43;;;3.65;;
49396;SDS011;35615;41.410;2.194;2023-02-28T00:10:26;6.13;;;4.25;;
49396;SDS011;35615;41.410;2.194;2023-02-28T00:13:04;6.35;;;2.70;;
49396;SDS011;35615;41.410;2.194;2023-02-28T00:15:37;10.27;;;3.08;;
49396;SDS011;35615;41.410;2.194;2023-02-28T00:18:07;4.78;;;2.90;;
49396;SDS011;35615;41.410;2.194;2023-02-28T00:20:40;4.35;;;2.97;;
49396;SDS011;35615;41.410;2.194;2023-02-28T00:25:48;10.23;;;3.08;;
49396;SDS011;35615;41.410;2.194;2023-02-28T00:28:22;5.20;;;2.70;;
49396;SDS011;35615;41.410;2.194;2023-02-28T00:31:03;5.97;;;3.10;;
49396;SDS011;35615;41.410;2.194;2023-02-28T00:33:34;3.22;;;2.42;;
49396;SDS011;35615;41.410;2.194;2023-02-28T00:36:13;7.15;;;3.00;;
49396;SDS011;35615;41.410;2.194;2023-02-28T00:38:41;4.75;;;2.95;;
49396;SDS011;35615;41.410;2.194;2023-02-28T00:41:20;4.25;;;2.50;;
49396;SDS011;35615;41.410;2.194;2023-02-28T00:43:47;4.97;;;3.10;;
49396;SDS011;35615;41.410;2.194;2023-02-28T00:46:20;6.07;;;2.57;;
49396;SDS011;35615;41.410;2.194;2023-02-28T00:49:04;4.13;;;2.30;;
49396;SDS011;35615;41.410;2.194;2023-02-28T00:51:45;2.92;;;2.55;;
49396;SDS011;35615;41.410;2.194;2023-02-28T00:57:14;2.70;;;2.22;;
49396;SDS011;35615;41.410;2.194;2023-02-28T00:59:47;3.42;;;2.50;;
49396;SDS011;35615;41.410;2.194;2023-02-28T01:02:15;3.63;;;2.50;;
49396;SDS011;35615;41.410;2.194;2023-02-28T01:04:45;3.90;;;2.63;;
49396;SDS011;35615;41.410;2.194;2023-02-28T01:07:13;3.92;;;2.92;;
49396;SDS011;35615;41.410;2.194;2023-02-28T01:09:41;4.28;;;3.15;;
49396;SDS011;35615;41.410;2.194;2023-02-28T01:12:15;6.78;;;2.58;;
49396;SDS011;35615;41.410;2.194;2023-02-28T01:14:45;3.65;;;2.53;;
49396;SDS011;35615;41.410;2.194;2023-02-28T01:17:15;5.05;;;2.63;;
49396;SDS011;35615;41.410;2.194;2023-02-28T01:19:43;3.17;;;2.80;;
49396;SDS011;35615;41.410;2.194;2023-02-28T01:22:13;5.65;;;2.75;;
49396;SDS011;35615;41.410;2.194;2023-02-28T01:24:46;3.88;;;2.85;;
49396;SDS011;35615;41.410;2.194;2023-02-28T01:27:14;3.35;;;2.80;;
49396;SDS011;35615;41.410;2.194;2023-02-28T01:29:44;4.68;;;2.75;;
49396;SDS011;35615;41.410;2.194;2023-02-28T01:32:14;4.22;;;2.95;;
49396;SDS011;35615;41.410;2.194;2023-02-28T01:34:45;4.50;;;2.58;;
49396;SDS011;35615;41.410;2.194;2023-02-28T01:37:15;3.10;;;2.75;;
49396;SDS011;35615;41.410;2.194;2023-02-28T01:39:45;6.78;;;2.83;;
49396;SDS011;35615;41.410;2.194;2023-02-28T01:42:31;3.70;;;2.63;;
49396;SDS011;35615;41.410;2.194;2023-02-28T01:45:48;3.72;;;2.72;;
49396;SDS011;35615;41.410;2.194;2023-02-28T01:48:02;4.47;;;2.70;;
49396;SDS011;35615;41.410;2.194;2023-02-28T01:50:41;4.15;;;2.60;;
49396;SDS011;35615;41.410;2.194;2023-02-28T01:53:17;5.55;;;3.10;;
49396;SDS011;35615;41.410;2.194;2023-02-28T01:56:04;3.72;;;2.65;;
49396;SDS011;35615;41.410;2.194;2023-02-28T01:58:49;8.68;;;2.70;;
49396;SDS011;35615;41.410;2.194;2023-02-28T02:05:35;6.25;;;2.67;;
49396;SDS011;35615;41.410;2.194;2023-02-28T02:08:19;4.63;;;2.50;;
49396;SDS011;35615;41.410;2.194;2023-02-28T02:10:59;4.45;;;2.92;;
49396;SDS011;35615;41.410;2.194;2023-02-28T02:29:36;4.90;;;2.83;;
49396;SDS011;35615;41.410;2.194;2023-02-28T02:39:01;4.22;;;2.60;;
49396;SDS011;35615;41.410;2.194;2023-02-28T02:41:45;2.90;;;2.25;;
49396;SDS011;35615;41.410;2.194;2023-02-28T02:47:43;3.80;;;2.70;;
49396;SDS011;35615;41.410;2.194;2023-02-28T02:50:54;4.13;;;2.17;;
49396;SDS011;35615;41.410;2.194;2023-02-28T02:53:44;2.67;;;2.25;;
49396;SDS011;35615;41.410;2.194;2023-02-28T02:56:27;4.85;;;2.80;;
49396;SDS011;35615;41.410;2.194;2023-02-28T03:02:26;2.65;;;2.22;;
49396;SDS011;35615;41.410;2.194;2023-02-28T03:05:26;3.63;;;2.28;;
49396;SDS011;35615;41.410;2.194;2023-02-28T03:08:04;3.28;;;2.35;;
49396;SDS011;35615;41.410;2.194;2023-02-28T03:10:37;7.55;;;2.35;;
49396;SDS011;35615;41.410;2.194;2023-02-28T03:15:48;2.40;;;2.08;;
49396;SDS011;35615;41.410;2.194;2023-02-28T03:18:44;4.20;;;1.90;;
49396;SDS011;35615;41.410;2.194;2023-02-28T03:24:08;2.42;;;1.85;;
49396;SDS011;35615;41.410;2.194;2023-02-28T03:27:21;2.22;;;1.90;;
49396;SDS011;35615;41.410;2.194;2023-02-28T03:32:53;5.07;;;2.17;;
49396;SDS011;35615;41.410;2.194;2023-02-28T03:35:42;2.85;;;2.10;;
49396;SDS011;35615;41.410;2.194;2023-02-28T03:38:39;2.15;;;1.92;;
49396;SDS011;35615;41.410;2.194;2023-02-28T03:41:22;2.70;;;1.80;;
49396;SDS011;35615;41.410;2.194;2023-02-28T03:44:05;4.50;;;1.95;;
49396;SDS011;35615;41.410;2.194;2023-02-28T03:46:36;2.28;;;2.05;;
49396;SDS011;35615;41.410;2.194;2023-02-28T03:49:16;5.43;;;1.98;;
49396;SDS011;35615;41.410;2.194;2023-02-28T03:51:53;3.08;;;2.15;;
49396;SDS011;35615;41.410;2.194;2023-02-28T03:54:35;2.25;;;1.90;;
49396;SDS011;35615;41.410;2.194;2023-02-28T03:57:23;2.85;;;2.10;;
49396;SDS011;35615;41.410;2.194;2023-02-28T04:00:10;2.05;;;1.83;;
49396;SDS011;35615;41.410;2.194;2023-02-28T04:02:45;2.75;;;2.30;;
49396;SDS011;35615;41.410;2.194;2023-02-28T04:05:20;2.47;;;2.20;;
49396;SDS011;35615;41.410;2.194;2023-02-28T04:07:48;4.45;;;2.40;;
49396;SDS011;35615;41.410;2.194;2023-02-28T04:10:21;5.85;;;2.35;;
49396;SDS011;35615;41.410;2.194;2023-02-28T04:12:52;4.05;;;2.60;;
49396;SDS011;35615;41.410;2.194;2023-02-28T04:15:22;3.00;;;2.40;;
49396;SDS011;35615;41.410;2.194;2023-02-28T04:17:51;4.78;;;2.40;;
49396;SDS011;35615;41.410;2.194;2023-02-28T04:20:23;3.28;;;2.67;;
49396;SDS011;35615;41.410;2.194;2023-02-28T04:22:54;2.83;;;2.40;;
49396;SDS011;35615;41.410;2.194;2023-02-28T04:25:23;3.10;;;2.22;;
49396;SDS011;35615;41.410;2.194;2023-02-28T04:28:07;2.45;;;2.05;;
49396;SDS011;35615;41.410;2.194;2023-02-28T04:30:41;3.20;;;2.28;;
49396;SDS011;35615;41.410;2.194;2023-02-28T04:33:08;2.92;;;2.35;;
49396;SDS011;35615;41.410;2.194;2023-02-28T04:35:37;3.03;;;2.35;;
49396;SDS011;35615;41.410;2.194;2023-02-28T04:38:07;3.55;;;2.60;;
49396;SDS011;35615;41.410;2.194;2023-02-28T04:40:35;3.15;;;2.42;;
49396;SDS011;35615;41.410;2.194;2023-02-28T04:43:06;4.93;;;2.75;;
49396;SDS011;35615;41.410;2.194;2023-02-28T04:48:18;4.13;;;2.40;;
49396;SDS011;35615;41.410;2.194;2023-02-28T04:50:59;5.53;;;2.92;;
49396;SDS011;35615;41.410;2.194;2023-02-28T04:53:30;7.30;;;2.15;;
49396;SDS011;35615;41.410;2.194;2023-02-28T04:56:02;3.30;;;2.60;;
49396;SDS011;35615;41.410;2.194;2023-02-28T04:58:38;5.82;;;2.40;;
49396;SDS011;35615;41.410;2.194;2023-02-28T05:01:31;6.03;;;2.40;;
49396;SDS011;35615;41.410;2.194;2023-02-28T05:04:03;3.50;;;2.50;;
49396;SDS011;35615;41.410;2.194;2023-02-28T05:06:34;4.05;;;2.25;;
49396;SDS011;35615;41.410;2.194;2023-02-28T05:09:01;2.42;;;2.20;;
49396;SDS011;35615;41.410;2.194;2023-02-28T05:11:34;4.55;;;2.00;;
49396;SDS011;35615;41.410;2.194;2023-02-28T05:14:05;4.97;;;2.70;;
49396;SDS011;35615;41.410;2.194;2023-02-28T05:16:39;2.83;;;2.30;;
49396;SDS011;35615;41.410;2.194;2023-02-28T05:19:15;2.78;;;2.10;;
49396;SDS011;35615;41.410;2.194;2023-02-28T05:22:03;3.15;;;2.15;;
49396;SDS011;35615;41.410;2.194;2023-02-28T05:24:36;3.38;;;2.00;;
49396;SDS011;35615;41.410;2.194;2023-02-28T05:27:19;2.30;;;2.10;;
49396;SDS011;35615;41.410;2.194;2023-02-28T05:32:40;2.70;;;2.30;;
49396;SDS011;35615;41.410;2.194;2023-02-28T05:35:13;3.20;;;2.33;;
49396;SDS011;35615;41.410;2.194;2023-02-28T05:38:00;3.72;;;2.47;;
49396;SDS011;35615;41.410;2.194;2023-02-28T05:40:32;2.35;;;2.15;;
49396;SDS011;35615;41.410;2.194;2023-02-28T05:43:10;3.33;;;2.40;;
49396;SDS011;35615;41.410;2.194;2023-02-28T05:45:56;4.95;;;3.03;;
49396;SDS011;35615;41.410;2.194;2023-02-28T05:48:33;3.58;;;2.55;;
49396;SDS011;35615;41.410;2.194;2023-02-28T05:51:04;3.88;;;2.60;;
49396;SDS011;35615;41.410;2.194;2023-02-28T05:53:38;3.53;;;2.25;;
49396;SDS011;35615;41.410;2.194;2023-02-28T05:56:05;4.55;;;2.30;;
49396;SDS011;35615;41.410;2.194;2023-02-28T05:58:45;5.68;;;2.78;;
49396;SDS011;35615;41.410;2.194;2023-02-28T06:01:25;2.95;;;2.55;;
49396;SDS011;35615;41.410;2.194;2023-02-28T06:04:09;3.17;;;2.20;;
49396;SDS011;35615;41.410;2.194;2023-02-28T06:06:59;4.07;;;2.60;;
49396;SDS011;35615;41.410;2.194;2023-02-28T06:09:34;3.75;;;2.58;;
49396;SDS011;35615;41.410;2.194;2023-02-28T06:12:05;3.65;;;2.50;;
49396;SDS011;35615;41.410;2.194;2023-02-28T06:14:42;4.43;;;2.25;;
49396;SDS011;35615;41.410;2.194;2023-02-28T06:17:16;4.00;;;2.60;;
49396;SDS011;35615;41.410;2.194;2023-02-28T06:20:00;4.93;;;2.85;;
49396;SDS011;35615;41.410;2.194;2023-02-28T06:22:32;2.45;;;2.17;;
49396;SDS011;35615;41.410;2.194;2023-02-28T06:25:13;3.60;;;2.95;;
49396;SDS011;35615;41.410;2.194;2023-02-28T06:27:49;3.70;;;2.65;;
49396;SDS011;35615;41.410;2.194;2023-02-28T06:30:28;4.82;;;2.50;;
49396;SDS011;35615;41.410;2.194;2023-02-28T06:33:15;3.53;;;2.78;;
49396;SDS011;35615;41.410;2.194;2023-02-28T06:36:02;3.75;;;2.90;;
49396;SDS011;35615;41.410;2.194;2023-02-28T06:38:36;3.30;;;2.83;;
49396;SDS011;35615;41.410;2.194;2023-02-28T06:41:14;4.93;;;2.67;;
49396;SDS011;35615;41.410;2.194;2023-02-28T06:43:44;5.10;;;2.90;;
49396;SDS011;35615;41.410;2.194;2023-02-28T06:46:16;8.50;;;2.50;;
49396;SDS011;35615;41.410;2.194;2023-02-28T06:48:59;3.75;;;2.75;;
49396;SDS011;35615;41.410;2.194;2023-02-28T06:51:31;8.70;;;2.88;;
49396;SDS011;35615;41.410;2.194;2023-02-28T06:54:02;3.80;;;2.75;;
49396;SDS011;35615;41.410;2.194;2023-02-28T06:56:46;4.80;;;2.75;;
49396;SDS011;35615;41.410;2.194;2023-02-28T06:59:16;3.75;;;2.53;;
49396;SDS011;35615;41.410;2.194;2023-02-28T07:01:52;3.27;;;2.80;;
49396;SDS011;35615;41.410;2.194;2023-02-28T07:04:45;5.60;;;3.00;;
49396;SDS011;35615;41.410;2.194;2023-02-28T07:07:27;3.88;;;2.95;;
49396;SDS011;35615;41.410;2.194;2023-02-28T07:10:09;6.18;;;3.08;;
49396;SDS011;35615;41.410;2.194;2023-02-28T07:12:56;4.83;;;3.23;;
49396;SDS011;35615;41.410;2.194;2023-02-28T07:15:35;4.30;;;3.35;;
49396;SDS011;35615;41.410;2.194;2023-02-28T07:20:35;3.72;;;3.00;;
49396;SDS011;35615;41.410;2.194;2023-02-28T07:23:02;6.32;;;2.78;;
49396;SDS011;35615;41.410;2.194;2023-02-28T07:25:33;6.00;;;3.10;;
49396;SDS011;35615;41.410;2.194;2023-02-28T07:28:01;5.45;;;3.10;;
49396;SDS011;35615;41.410;2.194;2023-02-28T07:30:30;7.93;;;3.90;;
49396;SDS011;35615;41.410;2.194;2023-02-28T07:33:04;4.30;;;3.28;;
49396;SDS011;35615;41.410;2.194;2023-02-28T07:38:02;4.50;;;2.85;;
49396;SDS011;35615;41.410;2.194;2023-02-28T07:40:30;4.82;;;3.13;;
49396;SDS011;35615;41.410;2.194;2023-02-28T07:43:01;5.10;;;3.20;;
49396;SDS011;35615;41.410;2.194;2023-02-28T07:45:35;7.50;;;3.30;;
49396;SDS011;35615;41.410;2.194;2023-02-28T07:48:03;5.35;;;3.25;;
49396;SDS011;35615;41.410;2.194;2023-02-28T07:50:31;4.78;;;3.42;;
49396;SDS011;35615;41.410;2.194;2023-02-28T07:52:58;4.25;;;3.30;;
49396;SDS011;35615;41.410;2.194;2023-02-28T07:58:02;8.88;;;3.70;;
49396;SDS011;35615;41.410;2.194;2023-02-28T08:00:32;6.00;;;3.67;;
49396;SDS011;35615;41.410;2.194;2023-02-28T08:03:03;7.13;;;3.53;;
49396;SDS011;35615;41.410;2.194;2023-02-28T08:05:38;8.75;;;4.25;;
49396;SDS011;35615;41.410;2.194;2023-02-28T08:08:08;5.82;;;4.22;;
49396;SDS011;35615;41.410;2.194;2023-02-28T08:10:39;7.90;;;4.63;;
49396;SDS011;35615;41.410;2.194;2023-02-28T08:13:07;11.95;;;3.92;;
49396;SDS011;35615;41.410;2.194;2023-02-28T08:15:35;5.72;;;3.90;;
49396;SDS011;35615;41.410;2.194;2023-02-28T08:18:04;6.63;;;4.10;;
49396;SDS011;35615;41.410;2.194;2023-02-28T08:20:32;7.63;;;4.50;;
49396;SDS011;35615;41.410;2.194;2023-02-28T08:23:00;6.10;;;4.28;;
49396;SDS011;35615;41.410;2.194;2023-02-28T08:25:27;7.75;;;4.13;;
49396;SDS011;35615;41.410;2.194;2023-02-28T08:27:55;6.47;;;4.47;;
49396;SDS011;35615;41.410;2.194;2023-02-28T08:30:29;5.75;;;3.83;;
49396;SDS011;35615;41.410;2.194;2023-02-28T08:35:35;6.38;;;3.70;;
49396;SDS011;35615;41.410;2.194;2023-02-28T08:38:10;23.45;;;5.30;;
49396;SDS011;35615;41.410;2.194;2023-02-28T08:40:40;5.97;;;3.42;;
49396;SDS011;35615;41.410;2.194;2023-02-28T08:43:09;8.57;;;4.28;;
49396;SDS011;35615;41.410;2.194;2023-02-28T08:45:45;5.93;;;4.40;;
49396;SDS011;35615;41.410;2.194;2023-02-28T08:51:30;7.72;;;4.15;;
49396;SDS011;35615;41.410;2.194;2023-02-28T08:54:20;6.13;;;4.22;;
49396;SDS011;35615;41.410;2.194;2023-02-28T08:57:25;4.55;;;3.58;;
49396;SDS011;35615;41.410;2.194;2023-02-28T08:59:59;13.88;;;5.15;;
49396;SDS011;35615;41.410;2.194;2023-02-28T09:02:47;5.28;;;3.83;;
49396;SDS011;35615;41.410;2.194;2023-02-28T09:05:22;6.28;;;4.15;;
49396;SDS011;35615;41.410;2.194;2023-02-28T09:08:07;5.57;;;3.83;;
49396;SDS011;35615;41.410;2.194;2023-02-28T09:11:31;5.20;;;3.75;;
49396;SDS011;35615;41.410;2.194;2023-02-28T09:14:04;6.30;;;3.90;;
49396;SDS011;35615;41.410;2.194;2023-02-28T09:16:39;6.22;;;3.92;;
49396;SDS011;35615;41.410;2.194;2023-02-28T09:19:25;5.95;;;4.18;;
49396;SDS011;35615;41.410;2.194;2023-02-28T09:21:58;5.22;;;3.95;;
49396;SDS011;35615;41.410;2.194;2023-02-28T09:24:39;5.53;;;3.28;;
49396;SDS011;35615;41.410;2.194;2023-02-28T09:27:13;3.95;;;3.20;;
49396;SDS011;35615;41.410;2.194;2023-02-28T09:29:41;7.57;;;3.13;;
49396;SDS011;35615;41.410;2.194;2023-02-28T09:32:14;4.70;;;3.47;;
49396;SDS011;35615;41.410;2.194;2023-02-28T09:34:47;6.60;;;3.75;;
49396;SDS011;35615;41.410;2.194;2023-02-28T09:37:25;8.48;;;4.53;;
49396;SDS011;35615;41.410;2.194;2023-02-28T09:40:00;7.60;;;4.45;;
49396;SDS011;35615;41.410;2.194;2023-02-28T09:42:32;5.88;;;4.15;;
49396;SDS011;35615;41.410;2.194;2023-02-28T09:48:18;5.90;;;4.03;;
49396;SDS011;35615;41.410;2.194;2023-02-28T09:54:38;9.75;;;3.97;;
49396;SDS011;35615;41.410;2.194;2023-02-28T09:57:28;5.65;;;3.92;;
49396;SDS011;35615;41.410;2.194;2023-02-28T10:00:43;4.72;;;3.63;;
49396;SDS011;35615;41.410;2.194;2023-02-28T10:06:39;6.40;;;3.58;;
49396;SDS011;35615;41.410;2.194;2023-02-28T10:09:35;12.15;;;6.43;;
49396;SDS011;35615;41.410;2.194;2023-02-28T10:12:12;6.22;;;3.78;;
49396;SDS011;35615;41.410;2.194;2023-02-28T10:15:08;8.77;;;3.58;;
49396;SDS011;35615;41.410;2.194;2023-02-28T10:18:05;11.60;;;4.78;;
49396;SDS011;35615;41.410;2.194;2023-02-28T10:23:38;6.95;;;4.45;;
49396;SDS011;35615;41.410;2.194;2023-02-28T10:26:34;5.85;;;3.78;;
49396;SDS011;35615;41.410;2.194;2023-02-28T10:35:35;6.80;;;3.97;;
49396;SDS011;35615;41.410;2.194;2023-02-28T10:38:13;9.60;;;4.03;;
49396;SDS011;35615;41.410;2.194;2023-02-28T10:41:41;5.18;;;3.60;;
49396;SDS011;35615;41.410;2.194;2023-02-28T10:47:17;12.00;;;4.18;;
49396;SDS011;35615;41.410;2.194;2023-02-28T10:50:04;14.52;;;4.38;;
49396;SDS011;35615;41.410;2.194;2023-02-28T10:52:55;5.55;;;4.43;;
49396;SDS011;35615;41.410;2.194;2023-02-28T10:55:46;12.38;;;4.57;;
49396;SDS011;35615;41.410;2.194;2023-02-28T10:58:53;6.15;;;3.20;;
49396;SDS011;35615;41.410;2.194;2023-02-28T11:01:42;3.83;;;3.42;;
49396;SDS011;35615;41.410;2.194;2023-02-28T11:04:34;5.32;;;3.97;;
49396;SDS011;35615;41.410;2.194;2023-02-28T11:09:53;5.95;;;3.75;;
49396;SDS011;35615;41.410;2.194;2023-02-28T11:12:37;5.72;;;4.20;;
49396;SDS011;35615;41.410;2.194;2023-02-28T11:15:30;9.63;;;3.63;;
49396;SDS011;35615;41.410;2.194;2023-02-28T11:21:06;3.97;;;3.55;;
49396;SDS011;35615;41.410;2.194;2023-02-28T11:23:49;5.20;;;3.90;;
49396;SDS011;35615;41.410;2.194;2023-02-28T11:26:40;4.68;;;3.50;;
49396;SDS011;35615;41.410;2.194;2023-02-28T11:29:28;6.60;;;3.60;;
49396;SDS011;35615;41.410;2.194;2023-02-28T11:32:32;3.95;;;3.55;;
49396;SDS011;35615;41.410;2.194;2023-02-28T11:37:59;8.98;;;3.92;;
49396;SDS011;35615;41.410;2.194;2023-02-28T11:44:08;6.30;;;3.88;;
49396;SDS011;35615;41.410;2.194;2023-02-28T11:46:49;6.50;;;3.72;;
49396;SDS011;35615;41.410;2.194;2023-02-28T11:49:37;8.27;;;4.30;;
49396;SDS011;35615;41.410;2.194;2023-02-28T12:00:57;7.70;;;4.00;;
49396;SDS011;35615;41.410;2.194;2023-02-28T12:06:41;8.75;;;3.40;;
49396;SDS011;35615;41.410;2.194;2023-02-28T12:09:36;5.35;;;4.03;;
49396;SDS011;35615;41.410;2.194;2023-02-28T12:12:29;7.97;;;4.35;;
49396;SDS011;35615;41.410;2.194;2023-02-28T12:15:41;7.28;;;3.65;;
49396;SDS011;35615;41.410;2.194;2023-02-28T12:21:37;8.10;;;3.70;;
49396;SDS011;35615;41.410;2.194;2023-02-28T12:27:13;14.27;;;4.32;;
49396;SDS011;35615;41.410;2.194;2023-02-28T12:30:08;10.23;;;4.43;;
49396;SDS011;35615;41.410;2.194;2023-02-28T12:32:50;6.20;;;3.88;;
49396;SDS011;35615;41.410;2.194;2023-02-28T12:39:00;6.28;;;3.97;;
49396;SDS011;35615;41.410;2.194;2023-02-28T12:44:12;11.48;;;3.97;;
49396;SDS011;35615;41.410;2.194;2023-02-28T12:46:50;5.43;;;3.53;;
49396;SDS011;35615;41.410;2.194;2023-02-28T13:10:05;5.25;;;4.15;;
49396;SDS011;35615;41.410;2.194;2023-02-28T13:12:55;5.05;;;3.85;;
49396;SDS011;35615;41.410;2.194;2023-02-28T13:15:33;8.05;;;4.43;;
49396;SDS011;35615;41.410;2.194;2023-02-28T13:21:32;7.70;;;4.10;;
49396;SDS011;35615;41.410;2.194;2023-02-28T13:27:23;4.93;;;4.07;;
49396;SDS011;35615;41.410;2.194;2023-02-28T13:38:54;6.05;;;3.30;;
49396;SDS011;35615;41.410;2.194;2023-02-28T13:41:43;9.52;;;3.20;;
49396;SDS011;35615;41.410;2.194;2023-02-28T13:44:38;3.75;;;3.25;;
49396;SDS011;35615;41.410;2.194;2023-02-28T13:51:00;5.43;;;3.95;;
49396;SDS011;35615;41.410;2.194;2023-02-28T14:03:40;5.30;;;3.55;;
49396;SDS011;35615;41.410;2.194;2023-02-28T14:06:46;5.40;;;3.90;;
49396;SDS011;35615;41.410;2.194;2023-02-28T14:15:30;8.50;;;3.67;;
49396;SDS011;35615;41.410;2.194;2023-02-28T14:18:25;5.45;;;3.38;;
49396;SDS011;35615;41.410;2.194;2023-02-28T14:30:11;21.60;;;5.22;;
49396;SDS011;35615;41.410;2.194;2023-02-28T14:36:18;8.18;;;4.45;;
49396;SDS011;35615;41.410;2.194;2023-02-28T14:52:35;7.97;;;3.90;;
49396;SDS011;35615;41.410;2.194;2023-02-28T14:55:15;9.05;;;3.58;;
49396;SDS011;35615;41.410;2.194;2023-02-28T14:58:04;9.10;;;3.17;;
49396;SDS011;35615;41.410;2.194;2023-02-28T15:00:59;5.10;;;3.80;;
49396;SDS011;35615;41.410;2.194;2023-02-28T15:04:12;7.10;;;4.30;;
49396;SDS011;35615;41.410;2.194;2023-02-28T15:07:08;8.52;;;5.95;;
49396;SDS011;35615;41.410;2.194;2023-02-28T15:13:02;12.13;;;4.50;;
49396;SDS011;35615;41.410;2.194;2023-02-28T15:15:45;7.63;;;4.07;;
49396;SDS011;35615;41.410;2.194;2023-02-28T15:21:31;17.35;;;5.22;;
49396;SDS011;35615;41.410;2.194;2023-02-28T15:24:10;5.70;;;4.00;;
49396;SDS011;35615;41.410;2.194;2023-02-28T15:27:05;5.28;;;4.00;;
49396;SDS011;35615;41.410;2.194;2023-02-28T15:30:13;6.50;;;3.80;;
49396;SDS011;35615;41.410;2.194;2023-02-28T15:35:49;7.38;;;3.72;;
49396;SDS011;35615;41.410;2.194;2023-02-28T15:41:28;5.45;;;3.92;;
49396;SDS011;35615;41.410;2.194;2023-02-28T15:44:33;5.95;;;4.15;;
49396;SDS011;35615;41.410;2.194;2023-02-28T15:47:25;10.20;;;4.53;;
49396;SDS011;35615;41.410;2.194;2023-02-28T15:50:10;7.28;;;3.70;;
49396;SDS011;35615;41.410;2.194;2023-02-28T15:53:02;7.50;;;3.72;;
49396;SDS011;35615;41.410;2.194;2023-02-28T15:56:00;6.55;;;3.72;;
49396;SDS011;35615;41.410;2.194;2023-02-28T16:01:44;6.00;;;4.10;;
49396;SDS011;35615;41.410;2.194;2023-02-28T16:04:19;6.25;;;4.05;;
49396;SDS011;35615;41.410;2.194;2023-02-28T16:07:16;9.07;;;4.25;;
49396;SDS011;35615;41.410;2.194;2023-02-28T16:10:08;6.07;;;3.78;;
49396;SDS011;35615;41.410;2.194;2023-02-28T16:13:14;3.87;;;3.50;;
49396;SDS011;35615;41.410;2.194;2023-02-28T16:28:29;5.65;;;4.13;;
49396;SDS011;35615;41.410;2.194;2023-02-28T16:34:21;11.35;;;4.45;;
49396;SDS011;35615;41.410;2.194;2023-02-28T16:40:03;9.57;;;3.90;;
49396;SDS011;35615;41.410;2.194;2023-02-28T16:42:55;6.55;;;4.53;;
49396;SDS011;35615;41.410;2.194;2023-02-28T16:46:10;9.02;;;4.18;;
49396;SDS011;35615;41.410;2.194;2023-02-28T16:48:55;7.97;;;4.35;;
49396;SDS011;35615;41.410;2.194;2023-02-28T16:51:38;9.02;;;4.53;;
49396;SDS011;35615;41.410;2.194;2023-02-28T16:54:19;5.45;;;4.05;;
49396;SDS011;35615;41.410;2.194;2023-02-28T16:57:08;6.55;;;4.70;;
49396;SDS011;35615;41.410;2.194;2023-02-28T17:09:20;5.68;;;4.70;;
49396;SDS011;35615;41.410;2.194;2023-02-28T17:21:21;8.10;;;4.95;;
49396;SDS011;35615;41.410;2.194;2023-02-28T17:24:10;7.03;;;4.57;;
49396;SDS011;35615;41.410;2.194;2023-02-28T17:26:58;7.03;;;4.57;;
49396;SDS011;35615;41.410;2.194;2023-02-28T17:29:47;8.60;;;5.18;;
49396;SDS011;35615;41.410;2.194;2023-02-28T17:32:30;10.75;;;5.18;;
49396;SDS011;35615;41.410;2.194;2023-02-28T17:35:15;12.68;;;4.63;;
49396;SDS011;35615;41.410;2.194;2023-02-28T17:38:05;7.45;;;5.18;;
49396;SDS011;35615;41.410;2.194;2023-02-28T17:40:45;7.18;;;4.65;;
49396;SDS011;35615;41.410;2.194;2023-02-28T17:43:35;14.48;;;7.85;;
49396;SDS011;35615;41.410;2.194;2023-02-28T17:46:22;7.55;;;4.78;;
49396;SDS011;35615;41.410;2.194;2023-02-28T17:49:05;10.23;;;4.93;;
49396;SDS011;35615;41.410;2.194;2023-02-28T17:51:49;8.43;;;4.28;;
49396;SDS011;35615;41.410;2.194;2023-02-28T17:54:21;8.02;;;5.18;;
49396;SDS011;35615;41.410;2.194;2023-02-28T18:02:51;7.28;;;4.97;;
49396;SDS011;35615;41.410;2.194;2023-02-28T18:08:31;10.95;;;5.05;;
49396;SDS011;35615;41.410;2.194;2023-02-28T18:11:23;9.77;;;4.93;;
49396;SDS011;35615;41.410;2.194;2023-02-28T18:14:18;9.73;;;4.30;;
49396;SDS011;35615;41.410;2.194;2023-02-28T18:17:08;8.73;;;4.50;;
49396;SDS011;35615;41.410;2.194;2023-02-28T18:19:54;8.35;;;4.97;;
49396;SDS011;35615;41.410;2.194;2023-02-28T18:26:08;9.82;;;5.45;;
49396;SDS011;35615;41.410;2.194;2023-02-28T18:29:02;11.75;;;6.10;;
49396;SDS011;35615;41.410;2.194;2023-02-28T18:31:48;8.30;;;5.13;;
49396;SDS011;35615;41.410;2.194;2023-02-28T18:40:37;9.65;;;5.18;;
49396;SDS011;35615;41.410;2.194;2023-02-28T18:46:00;6.97;;;4.70;;
49396;SDS011;35615;41.410;2.194;2023-02-28T19:00:39;10.40;;;5.95;;
49396;SDS011;35615;41.410;2.194;2023-02-28T19:03:14;17.05;;;5.00;;
49396;SDS011;35615;41.410;2.194;2023-02-28T19:05:56;7.60;;;4.93;;
49396;SDS011;35615;41.410;2.194;2023-02-28T19:11:54;6.57;;;4.85;;
49396;SDS011;35615;41.410;2.194;2023-02-28T19:14:35;13.10;;;5.68;;
49396;SDS011;35615;41.410;2.194;2023-02-28T19:17:10;9.73;;;5.65;;
49396;SDS011;35615;41.410;2.194;2023-02-28T19:19:43;9.40;;;5.60;;
49396;SDS011;35615;41.410;2.194;2023-02-28T19:31:03;9.55;;;5.22;;
49396;SDS011;35615;41.410;2.194;2023-02-28T19:34:02;8.88;;;5.43;;
49396;SDS011;35615;41.410;2.194;2023-02-28T19:36:42;7.35;;;4.50;;
49396;SDS011;35615;41.410;2.194;2023-02-28T19:42:27;8.27;;;5.85;;
49396;SDS011;35615;41.410;2.194;2023-02-28T19:45:08;17.38;;;4.72;;
49396;SDS011;35615;41.410;2.194;2023-02-28T19:47:55;17.65;;;5.53;;
49396;SDS011;35615;41.410;2.194;2023-02-28T19:50:42;9.02;;;3.60;;
49396;SDS011;35615;41.410;2.194;2023-02-28T19:53:44;11.82;;;5.05;;
49396;SDS011;35615;41.410;2.194;2023-02-28T19:56:21;6.30;;;4.15;;
49396;SDS011;35615;41.410;2.194;2023-02-28T19:58:49;16.17;;;3.80;;
49396;SDS011;35615;41.410;2.194;2023-02-28T20:01:17;7.45;;;3.97;;
49396;SDS011;35615;41.410;2.194;2023-02-28T20:07:10;9.57;;;4.53;;
49396;SDS011;35615;41.410;2.194;2023-02-28T20:09:53;9.38;;;4.68;;
49396;SDS011;35615;41.410;2.194;2023-02-28T20:12:25;8.57;;;3.92;;
49396;SDS011;35615;41.410;2.194;2023-02-28T20:15:09;9.57;;;4.40;;
49396;SDS011;35615;41.410;2.194;2023-02-28T20:17:57;6.30;;;4.10;;
49396;SDS011;35615;41.410;2.194;2023-02-28T20:20:38;10.85;;;4.05;;
49396;SDS011;35615;41.410;2.194;2023-02-28T20:23:13;8.35;;;4.40;;
49396;SDS011;35615;41.410;2.194;2023-02-28T20:25:50;6.78;;;4.53;;
49396;SDS011;35615;41.410;2.194;2023-02-28T20:31:18;11.63;;;4.60;;
49396;SDS011;35615;41.410;2.194;2023-02-28T20:33:55;9.73;;;4.40;;
49396;SDS011;35615;41.410;2.194;2023-02-28T20:36:44;8.95;;;4.13;;
49396;SDS011;35615;41.410;2.194;2023-02-28T20:39:31;8.02;;;3.97;;
49396;SDS011;35615;41.410;2.194;2023-02-28T20:42:07;6.13;;;3.80;;
49396;SDS011;35615;41.410;2.194;2023-02-28T20:44:44;7.10;;;4.22;;
49396;SDS011;35615;41.410;2.194;2023-02-28T20:47:19;7.25;;;3.70;;
49396;SDS011;35615;41.410;2.194;2023-02-28T20:50:06;7.53;;;3.78;;
49396;SDS011;35615;41.410;2.194;2023-02-28T20:52:53;6.15;;;4.07;;
49396;SDS011;35615;41.410;2.194;2023-02-28T20:55:30;5.57;;;3.55;;
49396;SDS011;35615;41.410;2.194;2023-02-28T20:58:03;9.52;;;5.18;;
49396;SDS011;35615;41.410;2.194;2023-02-28T21:00:48;9.38;;;4.03;;
49396;SDS011;35615;41.410;2.194;2023-02-28T21:03:35;10.82;;;4.53;;
49396;SDS011;35615;41.410;2.194;2023-02-28T21:06:25;6.90;;;4.63;;
49396;SDS011;35615;41.410;2.194;2023-02-28T21:09:04;7.22;;;4.57;;
49396;SDS011;35615;41.410;2.194;2023-02-28T21:11:37;8.50;;;4.50;;
49396;SDS011;35615;41.410;2.194;2023-02-28T21:14:21;9.80;;;4.22;;
49396;SDS011;35615;41.410;2.194;2023-02-28T21:17:00;8.82;;;4.70;;
49396;SDS011;35615;41.410;2.194;2023-02-28T21:19:41;7.68;;;4.05;;